Baku airport (UBBB)

baku-airport

Baku International Airport

Heydar Aliyev International Airport is the main international airport in Azerbaijan located 20 km (12 mi) northeast of the capital Baku. The airport is the home of Azerbaijan Airlines, the national flag carrier. It is the busiest airport in Azerbaijan and of the Caucasus.

ICAO: UBBB, IATA: GYD

Charts: Jeppesen

Sceneries: freeware demos w. reduced resolution

 fs9     fsx     Prepar

payware: http://www.drzewiecki-design.net/

METAR:

UBBB 180230Z 31014KT 9999 FEW013 OVC028 06/04 Q1020 R34/290060 R35/290055 NOSIG

TAF TAF UBBB 171716Z 1718/1818 19005KT 8000 SCT008 OVC023 TX07/1812Z TN04/1802Z TEMPO 1718/1720 25005KT 3000 -RA BKN005 OVC017 BECMG 1720/1722 31010KT TEMPO 1720/1802 5000 -RA BKN006 OVC020 BECMG 1805/1806 33020G30KT 9999 BKN025 BKN100 TEMPO 1806/1812 34024G34KT SCT012